»·PEaware :: N160BZ KSNA-KBUR

N160BZ :: KSNA-KBUR

FLIGHT INFORMATION

Flight Status: Arrived
Operator: Privately registered:
United States
More flights under this callsign
Pilot: Martin C. (20247)
Aircraft: BEECH AIRCRAFT BARON
(BE58)
More flights by this aircraft type
Origin: KSNA John Wayne-Orange Co
United States
Destination: KBUR Bob Hope-Burbank
United States
More flights between these airports :: More routes between these airports
Route: +SLI V23 POPPR SMO125R SMO SMO311R SILEX
File this flight plan on PilotEdge
Remarks: TEC route CSTP1
Altitude:
(Current/Filed)
4,000ft
Speed:
(Current/Filed)
170kts
Departed: 01-Feb-19 01:37 PM
Arrived: 01-Feb-19 02:01 PM
Distance/Time
Traveled:
40nm/0:24
Distance/Time
To Go:
Arrived

Flight Plot

Page will automatically refresh every two minutes.


Map Options




Map Legend


Flown Route
Filed Route
Departure Airport
Arrival Airport
Navaid (VOR, NDB)
Fix

Horizontal Profiles

Position Reports

Time Latitude Longitude Heading Altitude Ground
Speed
01-Feb-19 13:15 33.671972 -117.873659 29 60ft 0kts
01-Feb-19 13:16 33.671972 -117.873659 29 60ft 0kts
01-Feb-19 13:17 33.671972 -117.873659 29 60ft 0kts
01-Feb-19 13:18 33.671972 -117.873659 29 60ft 0kts
01-Feb-19 13:19 33.671972 -117.873659 29 60ft 0kts
01-Feb-19 13:20 33.671972 -117.873659 29 60ft 0kts
01-Feb-19 13:21 33.671972 -117.873659 29 60ft 0kts
01-Feb-19 13:22 33.671972 -117.873659 29 60ft 0kts
01-Feb-19 13:23 33.671972 -117.873659 29 60ft 0kts
01-Feb-19 13:24 33.671972 -117.873659 29 60ft 0kts
01-Feb-19 13:25 33.671972 -117.873659 29 60ft 0kts
01-Feb-19 13:26 33.671972 -117.873659 29 60ft 0kts
01-Feb-19 13:28 33.671972 -117.873659 29 60ft 0kts
01-Feb-19 13:28 33.671972 -117.873659 29 60ft 0kts
01-Feb-19 13:29 33.671972 -117.873659 29 60ft 0kts
01-Feb-19 13:30 33.671972 -117.873659 29 60ft 0kts
01-Feb-19 13:31 33.671972 -117.873659 29 60ft 0kts
01-Feb-19 13:32 33.673703 -117.871580 28 60ft 17kts
01-Feb-19 13:33 33.678974 -117.868240 23 60ft 23kts
01-Feb-19 13:34 33.681209 -117.866405 115 60ft 0kts
01-Feb-19 13:35 33.681209 -117.866405 115 60ft 0kts
01-Feb-19 13:36 33.667152 -117.873692 205 317ft 129kts
01-Feb-19 13:37 33.640687 -117.906010 232 1261ft 142kts
01-Feb-19 13:38 33.617523 -117.945110 232 2195ft 142kts
01-Feb-19 13:39 33.598321 -117.985907 279 3062ft 147kts
01-Feb-19 13:40 33.626997 -118.023813 312 3966ft 158kts
01-Feb-19 13:41 33.661110 -118.065072 312 3986ft 180kts
01-Feb-19 13:42 33.696593 -118.108534 312 3985ft 182kts
01-Feb-19 13:43 33.732321 -118.152429 312 3985ft 183kts
01-Feb-19 13:44 33.768186 -118.196525 313 4006ft 183kts
01-Feb-19 13:45 33.804116 -118.240765 316 4010ft 183kts
01-Feb-19 13:46 33.839688 -118.284712 315 4008ft 181kts
01-Feb-19 13:47 33.877100 -118.323042 322 4006ft 179kts
01-Feb-19 13:48 33.914290 -118.360046 321 4005ft 178kts
01-Feb-19 13:50 33.951848 -118.397857 321 4007ft 178kts
01-Feb-19 13:51 33.990263 -118.436506 321 4010ft 180kts
01-Feb-19 13:52 34.030614 -118.474841 326 4012ft 182kts
01-Feb-19 13:53 34.072804 -118.509452 326 4013ft 182kts
01-Feb-19 13:54 34.115257 -118.544892 326 4011ft 182kts
01-Feb-19 13:55 34.157130 -118.580071 325 4008ft 183kts
01-Feb-19 13:56 34.198884 -118.584237 69 3671ft 176kts
01-Feb-19 13:57 34.199685 -118.525363 92 3089ft 176kts
01-Feb-19 13:58 34.199097 -118.468853 92 2365ft 145kts
01-Feb-19 13:59 34.198597 -118.426412 93 1701ft 109kts
01-Feb-19 14:00 34.198167 -118.390764 93 1120ft 97kts
01-Feb-19 14:01 34.197763 -118.360991 93 717ft 24kts
01-Feb-19 14:02 34.198570 -118.360397 353 718ft 8kts
01-Feb-19 14:03 34.200270 -118.363790 346 727ft 0kts
01-Feb-19 14:04 34.200270 -118.363790 346 727ft 0kts
01-Feb-19 14:05 34.200270 -118.363790 346 727ft 0kts
01-Feb-19 14:06 34.200270 -118.363790 346 727ft 0kts
01-Feb-19 14:07 34.200270 -118.363790 346 727ft 0kts
01-Feb-19 14:08 34.200270 -118.363790 346 727ft 0kts
01-Feb-19 14:08 34.200270 -118.363790 346 727ft 0kts
01-Feb-19 14:10 34.200270 -118.363790 346 727ft 0kts
01-Feb-19 14:11 34.200270 -118.363790 346 727ft 0kts
01-Feb-19 14:12 34.200270 -118.363790 346 727ft 0kts
01-Feb-19 14:12 34.200270 -118.363790 346 727ft 0kts
01-Feb-19 14:13 34.200270 -118.363790 346 727ft 0kts
01-Feb-19 14:15 34.200270 -118.363790 346 727ft 0kts

Navigation Log

Ident Type
Flight plan parsing failed, navigation log unavailable